sensor_id;sensor_type;location;lat;lon;timestamp;P1;durP1;ratioP1;P2;durP2;ratioP2
27223;SDS011;14965;50.660;13.226;2023-04-26T00:01:46;20.65;;;6.78;;
27223;SDS011;14965;50.660;13.226;2023-04-26T00:04:12;13.82;;;6.28;;
27223;SDS011;14965;50.660;13.226;2023-04-26T00:06:37;13.23;;;6.93;;
27223;SDS011;14965;50.660;13.226;2023-04-26T00:09:03;22.65;;;7.88;;
27223;SDS011;14965;50.660;13.226;2023-04-26T00:11:29;17.30;;;8.02;;
27223;SDS011;14965;50.660;13.226;2023-04-26T00:13:58;20.05;;;8.27;;
27223;SDS011;14965;50.660;13.226;2023-04-26T00:16:24;20.50;;;8.85;;
27223;SDS011;14965;50.660;13.226;2023-04-26T00:18:49;20.25;;;9.25;;
27223;SDS011;14965;50.660;13.226;2023-04-26T00:21:15;23.02;;;9.60;;
27223;SDS011;14965;50.660;13.226;2023-04-26T00:23:41;17.92;;;9.77;;
27223;SDS011;14965;50.660;13.226;2023-04-26T00:26:07;15.88;;;9.40;;
27223;SDS011;14965;50.660;13.226;2023-04-26T00:28:33;20.52;;;10.38;;
27223;SDS011;14965;50.660;13.226;2023-04-26T00:31:00;20.50;;;10.98;;
27223;SDS011;14965;50.660;13.226;2023-04-26T00:33:26;23.00;;;12.60;;
27223;SDS011;14965;50.660;13.226;2023-04-26T00:35:52;22.83;;;12.57;;
27223;SDS011;14965;50.660;13.226;2023-04-26T00:38:18;26.10;;;12.40;;
27223;SDS011;14965;50.660;13.226;2023-04-26T00:40:44;21.50;;;12.82;;
27223;SDS011;14965;50.660;13.226;2023-04-26T00:43:09;20.67;;;11.73;;
27223;SDS011;14965;50.660;13.226;2023-04-26T00:45:35;22.63;;;12.07;;
27223;SDS011;14965;50.660;13.226;2023-04-26T00:48:03;21.77;;;11.93;;
27223;SDS011;14965;50.660;13.226;2023-04-26T00:50:29;20.60;;;11.20;;
27223;SDS011;14965;50.660;13.226;2023-04-26T00:52:56;20.25;;;11.20;;
27223;SDS011;14965;50.660;13.226;2023-04-26T00:55:23;19.27;;;11.43;;
27223;SDS011;14965;50.660;13.226;2023-04-26T00:57:50;19.35;;;10.95;;
27223;SDS011;14965;50.660;13.226;2023-04-26T01:00:16;20.08;;;10.07;;
27223;SDS011;14965;50.660;13.226;2023-04-26T01:02:42;23.10;;;10.40;;
27223;SDS011;14965;50.660;13.226;2023-04-26T01:05:10;19.77;;;10.40;;
27223;SDS011;14965;50.660;13.226;2023-04-26T01:07:36;21.00;;;10.52;;
27223;SDS011;14965;50.660;13.226;2023-04-26T01:10:02;18.20;;;10.20;;
27223;SDS011;14965;50.660;13.226;2023-04-26T01:12:30;17.92;;;9.15;;
27223;SDS011;14965;50.660;13.226;2023-04-26T01:14:56;20.45;;;9.13;;
27223;SDS011;14965;50.660;13.226;2023-04-26T01:17:24;17.92;;;8.52;;
27223;SDS011;14965;50.660;13.226;2023-04-26T01:19:50;21.85;;;8.75;;
27223;SDS011;14965;50.660;13.226;2023-04-26T01:22:17;16.40;;;7.97;;
27223;SDS011;14965;50.660;13.226;2023-04-26T01:24:49;22.15;;;8.02;;
27223;SDS011;14965;50.660;13.226;2023-04-26T01:27:18;13.38;;;7.07;;
27223;SDS011;14965;50.660;13.226;2023-04-26T01:29:44;14.00;;;7.40;;
27223;SDS011;14965;50.660;13.226;2023-04-26T01:32:10;19.90;;;7.80;;
27223;SDS011;14965;50.660;13.226;2023-04-26T01:34:36;13.73;;;6.50;;
27223;SDS011;14965;50.660;13.226;2023-04-26T01:37:02;14.45;;;6.20;;
27223;SDS011;14965;50.660;13.226;2023-04-26T01:39:29;11.10;;;6.57;;
27223;SDS011;14965;50.660;13.226;2023-04-26T01:41:57;18.00;;;7.15;;
27223;SDS011;14965;50.660;13.226;2023-04-26T01:44:23;15.35;;;6.85;;
27223;SDS011;14965;50.660;13.226;2023-04-26T01:46:48;14.63;;;6.95;;
27223;SDS011;14965;50.660;13.226;2023-04-26T01:49:14;16.70;;;6.88;;
27223;SDS011;14965;50.660;13.226;2023-04-26T01:51:40;14.43;;;7.15;;
27223;SDS011;14965;50.660;13.226;2023-04-26T01:54:06;15.05;;;6.07;;
27223;SDS011;14965;50.660;13.226;2023-04-26T01:56:32;18.60;;;6.78;;
27223;SDS011;14965;50.660;13.226;2023-04-26T01:58:59;17.92;;;6.35;;
27223;SDS011;14965;50.660;13.226;2023-04-26T02:01:25;15.32;;;7.18;;
27223;SDS011;14965;50.660;13.226;2023-04-26T02:03:51;17.15;;;7.13;;
27223;SDS011;14965;50.660;13.226;2023-04-26T02:06:17;20.08;;;6.80;;
27223;SDS011;14965;50.660;13.226;2023-04-26T02:08:43;15.00;;;6.55;;
27223;SDS011;14965;50.660;13.226;2023-04-26T02:11:09;15.90;;;6.95;;
27223;SDS011;14965;50.660;13.226;2023-04-26T02:13:35;14.52;;;6.80;;
27223;SDS011;14965;50.660;13.226;2023-04-26T02:16:03;13.45;;;7.00;;
27223;SDS011;14965;50.660;13.226;2023-04-26T02:18:29;15.02;;;7.40;;
27223;SDS011;14965;50.660;13.226;2023-04-26T02:20:55;17.20;;;7.13;;
27223;SDS011;14965;50.660;13.226;2023-04-26T02:23:21;16.42;;;6.90;;
27223;SDS011;14965;50.660;13.226;2023-04-26T02:25:47;16.38;;;7.05;;
27223;SDS011;14965;50.660;13.226;2023-04-26T02:28:13;16.73;;;7.18;;
27223;SDS011;14965;50.660;13.226;2023-04-26T02:30:39;18.98;;;7.65;;
27223;SDS011;14965;50.660;13.226;2023-04-26T02:33:06;14.20;;;7.05;;
27223;SDS011;14965;50.660;13.226;2023-04-26T02:35:33;14.35;;;6.40;;
27223;SDS011;14965;50.660;13.226;2023-04-26T02:37:59;13.73;;;6.95;;
27223;SDS011;14965;50.660;13.226;2023-04-26T02:40:25;14.23;;;6.60;;
27223;SDS011;14965;50.660;13.226;2023-04-26T02:42:51;15.27;;;7.22;;
27223;SDS011;14965;50.660;13.226;2023-04-26T02:45:17;16.17;;;6.82;;
27223;SDS011;14965;50.660;13.226;2023-04-26T02:47:43;15.23;;;7.43;;
27223;SDS011;14965;50.660;13.226;2023-04-26T02:50:10;14.43;;;7.18;;
27223;SDS011;14965;50.660;13.226;2023-04-26T02:52:36;15.93;;;6.57;;
27223;SDS011;14965;50.660;13.226;2023-04-26T02:55:02;14.70;;;7.03;;
27223;SDS011;14965;50.660;13.226;2023-04-26T02:57:29;15.32;;;7.55;;
27223;SDS011;14965;50.660;13.226;2023-04-26T02:59:55;17.50;;;6.80;;
27223;SDS011;14965;50.660;13.226;2023-04-26T03:02:21;22.35;;;7.22;;
27223;SDS011;14965;50.660;13.226;2023-04-26T03:04:48;15.90;;;6.60;;
27223;SDS011;14965;50.660;13.226;2023-04-26T03:07:15;13.88;;;6.32;;
27223;SDS011;14965;50.660;13.226;2023-04-26T03:09:41;13.90;;;6.20;;
27223;SDS011;14965;50.660;13.226;2023-04-26T03:12:07;16.13;;;6.72;;
27223;SDS011;14965;50.660;13.226;2023-04-26T03:14:34;20.60;;;6.38;;
27223;SDS011;14965;50.660;13.226;2023-04-26T03:17:00;11.55;;;6.13;;
27223;SDS011;14965;50.660;13.226;2023-04-26T03:19:26;16.98;;;6.82;;
27223;SDS011;14965;50.660;13.226;2023-04-26T03:21:52;16.98;;;6.93;;
27223;SDS011;14965;50.660;13.226;2023-04-26T03:24:19;14.25;;;6.45;;
27223;SDS011;14965;50.660;13.226;2023-04-26T03:26:46;14.32;;;5.97;;
27223;SDS011;14965;50.660;13.226;2023-04-26T03:29:12;15.85;;;6.63;;
27223;SDS011;14965;50.660;13.226;2023-04-26T03:31:38;19.83;;;7.30;;
27223;SDS011;14965;50.660;13.226;2023-04-26T03:34:04;14.13;;;6.65;;
27223;SDS011;14965;50.660;13.226;2023-04-26T03:36:30;13.82;;;6.47;;
27223;SDS011;14965;50.660;13.226;2023-04-26T03:38:56;13.70;;;7.40;;
27223;SDS011;14965;50.660;13.226;2023-04-26T03:41:23;15.23;;;6.70;;
27223;SDS011;14965;50.660;13.226;2023-04-26T03:43:49;15.73;;;6.88;;
27223;SDS011;14965;50.660;13.226;2023-04-26T03:46:15;16.02;;;8.43;;
27223;SDS011;14965;50.660;13.226;2023-04-26T03:48:41;18.25;;;9.85;;
27223;SDS011;14965;50.660;13.226;2023-04-26T03:51:07;11.98;;;7.13;;
27223;SDS011;14965;50.660;13.226;2023-04-26T03:53:33;12.95;;;5.63;;
27223;SDS011;14965;50.660;13.226;2023-04-26T03:55:58;15.70;;;6.22;;
27223;SDS011;14965;50.660;13.226;2023-04-26T03:58:26;16.90;;;6.32;;
27223;SDS011;14965;50.660;13.226;2023-04-26T04:00:54;14.63;;;5.80;;
27223;SDS011;14965;50.660;13.226;2023-04-26T04:03:21;13.48;;;5.63;;
27223;SDS011;14965;50.660;13.226;2023-04-26T04:05:47;14.20;;;5.65;;
27223;SDS011;14965;50.660;13.226;2023-04-26T04:08:13;13.35;;;5.70;;
27223;SDS011;14965;50.660;13.226;2023-04-26T04:10:38;12.00;;;5.85;;
27223;SDS011;14965;50.660;13.226;2023-04-26T04:13:04;16.13;;;5.88;;
27223;SDS011;14965;50.660;13.226;2023-04-26T04:15:31;16.10;;;6.25;;
27223;SDS011;14965;50.660;13.226;2023-04-26T04:17:57;13.55;;;6.63;;
27223;SDS011;14965;50.660;13.226;2023-04-26T04:20:23;16.83;;;7.50;;
27223;SDS011;14965;50.660;13.226;2023-04-26T04:22:49;16.85;;;7.03;;
27223;SDS011;14965;50.660;13.226;2023-04-26T04:25:15;15.90;;;7.03;;
27223;SDS011;14965;50.660;13.226;2023-04-26T04:27:44;11.27;;;6.30;;
27223;SDS011;14965;50.660;13.226;2023-04-26T04:30:10;14.80;;;6.68;;
27223;SDS011;14965;50.660;13.226;2023-04-26T04:32:38;13.15;;;6.85;;
27223;SDS011;14965;50.660;13.226;2023-04-26T04:35:04;16.77;;;6.75;;
27223;SDS011;14965;50.660;13.226;2023-04-26T04:37:30;14.25;;;6.32;;
27223;SDS011;14965;50.660;13.226;2023-04-26T04:39:56;18.55;;;6.55;;
27223;SDS011;14965;50.660;13.226;2023-04-26T04:42:22;17.45;;;6.80;;
27223;SDS011;14965;50.660;13.226;2023-04-26T04:44:47;13.98;;;6.93;;
27223;SDS011;14965;50.660;13.226;2023-04-26T04:47:13;12.73;;;6.22;;
27223;SDS011;14965;50.660;13.226;2023-04-26T04:49:40;18.58;;;6.82;;
27223;SDS011;14965;50.660;13.226;2023-04-26T04:52:06;15.40;;;6.13;;
27223;SDS011;14965;50.660;13.226;2023-04-26T04:54:32;14.77;;;6.20;;
27223;SDS011;14965;50.660;13.226;2023-04-26T04:56:58;13.80;;;6.28;;
27223;SDS011;14965;50.660;13.226;2023-04-26T04:59:24;17.15;;;6.50;;
27223;SDS011;14965;50.660;13.226;2023-04-26T05:01:50;13.32;;;6.90;;
27223;SDS011;14965;50.660;13.226;2023-04-26T05:04:16;12.40;;;5.28;;
27223;SDS011;14965;50.660;13.226;2023-04-26T05:06:43;18.77;;;5.90;;
27223;SDS011;14965;50.660;13.226;2023-04-26T05:09:09;13.60;;;5.57;;
27223;SDS011;14965;50.660;13.226;2023-04-26T05:11:35;14.50;;;6.35;;
27223;SDS011;14965;50.660;13.226;2023-04-26T05:14:01;18.10;;;6.45;;
27223;SDS011;14965;50.660;13.226;2023-04-26T05:16:27;16.85;;;6.45;;
27223;SDS011;14965;50.660;13.226;2023-04-26T05:18:52;18.20;;;6.80;;
27223;SDS011;14965;50.660;13.226;2023-04-26T05:21:18;18.13;;;6.72;;
27223;SDS011;14965;50.660;13.226;2023-04-26T05:23:47;14.15;;;6.97;;
27223;SDS011;14965;50.660;13.226;2023-04-26T05:26:13;15.45;;;7.18;;
27223;SDS011;14965;50.660;13.226;2023-04-26T05:28:40;14.40;;;7.35;;
27223;SDS011;14965;50.660;13.226;2023-04-26T05:31:07;17.25;;;7.45;;
27223;SDS011;14965;50.660;13.226;2023-04-26T05:33:33;19.17;;;6.85;;
27223;SDS011;14965;50.660;13.226;2023-04-26T05:35:59;12.60;;;6.32;;
27223;SDS011;14965;50.660;13.226;2023-04-26T05:38:25;18.02;;;6.65;;
27223;SDS011;14965;50.660;13.226;2023-04-26T05:40:53;16.35;;;6.55;;
27223;SDS011;14965;50.660;13.226;2023-04-26T05:43:18;11.13;;;5.88;;
27223;SDS011;14965;50.660;13.226;2023-04-26T05:45:50;17.80;;;6.32;;
27223;SDS011;14965;50.660;13.226;2023-04-26T05:48:16;19.40;;;6.75;;
27223;SDS011;14965;50.660;13.226;2023-04-26T05:50:42;17.40;;;6.03;;
27223;SDS011;14965;50.660;13.226;2023-04-26T05:53:08;16.27;;;5.68;;
27223;SDS011;14965;50.660;13.226;2023-04-26T05:55:34;14.85;;;5.30;;
27223;SDS011;14965;50.660;13.226;2023-04-26T05:58:02;15.68;;;6.07;;
27223;SDS011;14965;50.660;13.226;2023-04-26T06:00:27;17.00;;;6.30;;
27223;SDS011;14965;50.660;13.226;2023-04-26T06:02:53;16.52;;;5.93;;
27223;SDS011;14965;50.660;13.226;2023-04-26T06:05:19;19.92;;;6.43;;
27223;SDS011;14965;50.660;13.226;2023-04-26T06:07:45;16.88;;;5.90;;
27223;SDS011;14965;50.660;13.226;2023-04-26T06:10:11;22.42;;;6.13;;
27223;SDS011;14965;50.660;13.226;2023-04-26T06:12:37;21.50;;;5.55;;
27223;SDS011;14965;50.660;13.226;2023-04-26T06:15:05;14.25;;;6.35;;
27223;SDS011;14965;50.660;13.226;2023-04-26T06:17:32;10.95;;;4.97;;
27223;SDS011;14965;50.660;13.226;2023-04-26T06:19:58;16.20;;;5.43;;
27223;SDS011;14965;50.660;13.226;2023-04-26T06:22:23;19.55;;;5.35;;
27223;SDS011;14965;50.660;13.226;2023-04-26T06:24:49;13.52;;;5.40;;
27223;SDS011;14965;50.660;13.226;2023-04-26T06:27:15;17.35;;;4.93;;
27223;SDS011;14965;50.660;13.226;2023-04-26T06:29:41;17.35;;;5.15;;
27223;SDS011;14965;50.660;13.226;2023-04-26T06:32:08;15.75;;;5.18;;
27223;SDS011;14965;50.660;13.226;2023-04-26T06:34:34;14.23;;;4.95;;
27223;SDS011;14965;50.660;13.226;2023-04-26T06:37:00;13.30;;;4.78;;
27223;SDS011;14965;50.660;13.226;2023-04-26T06:39:26;17.67;;;5.03;;
27223;SDS011;14965;50.660;13.226;2023-04-26T06:41:51;18.30;;;4.88;;
27223;SDS011;14965;50.660;13.226;2023-04-26T06:44:17;16.00;;;5.30;;
27223;SDS011;14965;50.660;13.226;2023-04-26T06:46:43;21.15;;;6.00;;
27223;SDS011;14965;50.660;13.226;2023-04-26T06:49:10;15.40;;;5.18;;
27223;SDS011;14965;50.660;13.226;2023-04-26T06:51:36;12.52;;;5.25;;
27223;SDS011;14965;50.660;13.226;2023-04-26T06:54:02;16.50;;;5.00;;
27223;SDS011;14965;50.660;13.226;2023-04-26T06:56:29;17.75;;;5.13;;
27223;SDS011;14965;50.660;13.226;2023-04-26T06:58:57;15.55;;;6.10;;
27223;SDS011;14965;50.660;13.226;2023-04-26T07:01:24;12.95;;;6.30;;
27223;SDS011;14965;50.660;13.226;2023-04-26T07:03:50;18.13;;;5.78;;
27223;SDS011;14965;50.660;13.226;2023-04-26T07:06:17;14.35;;;8.07;;
27223;SDS011;14965;50.660;13.226;2023-04-26T07:08:43;11.80;;;5.25;;
27223;SDS011;14965;50.660;13.226;2023-04-26T07:11:09;15.00;;;5.30;;
27223;SDS011;14965;50.660;13.226;2023-04-26T07:13:35;16.10;;;5.30;;
27223;SDS011;14965;50.660;13.226;2023-04-26T07:16:00;15.55;;;4.38;;
27223;SDS011;14965;50.660;13.226;2023-04-26T07:18:26;15.05;;;6.07;;
27223;SDS011;14965;50.660;13.226;2023-04-26T07:20:52;14.07;;;4.95;;
27223;SDS011;14965;50.660;13.226;2023-04-26T07:23:19;12.15;;;3.63;;
27223;SDS011;14965;50.660;13.226;2023-04-26T07:25:45;12.82;;;3.47;;
27223;SDS011;14965;50.660;13.226;2023-04-26T07:28:11;18.35;;;4.30;;
27223;SDS011;14965;50.660;13.226;2023-04-26T07:30:37;11.27;;;3.40;;
27223;SDS011;14965;50.660;13.226;2023-04-26T07:33:03;14.80;;;4.22;;
27223;SDS011;14965;50.660;13.226;2023-04-26T07:35:29;14.40;;;4.43;;
27223;SDS011;14965;50.660;13.226;2023-04-26T07:37:55;14.23;;;3.88;;
27223;SDS011;14965;50.660;13.226;2023-04-26T07:40:22;14.05;;;4.03;;
27223;SDS011;14965;50.660;13.226;2023-04-26T07:42:48;13.05;;;3.90;;
27223;SDS011;14965;50.660;13.226;2023-04-26T07:45:14;13.43;;;3.65;;
27223;SDS011;14965;50.660;13.226;2023-04-26T07:47:40;18.35;;;3.88;;
27223;SDS011;14965;50.660;13.226;2023-04-26T07:50:07;10.55;;;3.72;;
27223;SDS011;14965;50.660;13.226;2023-04-26T07:52:34;14.80;;;4.38;;
27223;SDS011;14965;50.660;13.226;2023-04-26T07:55:00;14.07;;;3.75;;
27223;SDS011;14965;50.660;13.226;2023-04-26T07:57:28;11.63;;;3.33;;
27223;SDS011;14965;50.660;13.226;2023-04-26T07:59:53;17.45;;;4.63;;
27223;SDS011;14965;50.660;13.226;2023-04-26T08:02:19;13.25;;;3.97;;
27223;SDS011;14965;50.660;13.226;2023-04-26T08:04:48;14.55;;;4.00;;
27223;SDS011;14965;50.660;13.226;2023-04-26T08:07:14;10.80;;;3.08;;
27223;SDS011;14965;50.660;13.226;2023-04-26T08:09:40;11.82;;;3.50;;
27223;SDS011;14965;50.660;13.226;2023-04-26T08:12:06;13.20;;;3.08;;
27223;SDS011;14965;50.660;13.226;2023-04-26T08:14:34;13.07;;;3.30;;
27223;SDS011;14965;50.660;13.226;2023-04-26T08:17:00;11.55;;;3.10;;
27223;SDS011;14965;50.660;13.226;2023-04-26T08:19:26;12.27;;;3.20;;
27223;SDS011;14965;50.660;13.226;2023-04-26T08:21:52;9.38;;;3.05;;
27223;SDS011;14965;50.660;13.226;2023-04-26T08:24:17;13.23;;;3.13;;
27223;SDS011;14965;50.660;13.226;2023-04-26T08:26:43;10.13;;;2.88;;
27223;SDS011;14965;50.660;13.226;2023-04-26T08:29:09;7.68;;;2.85;;
27223;SDS011;14965;50.660;13.226;2023-04-26T08:31:36;8.82;;;2.92;;
27223;SDS011;14965;50.660;13.226;2023-04-26T08:34:02;10.52;;;3.22;;
27223;SDS011;14965;50.660;13.226;2023-04-26T08:37:45;12.55;;;2.90;;
27223;SDS011;14965;50.660;13.226;2023-04-26T08:40:37;8.68;;;3.05;;
27223;SDS011;14965;50.660;13.226;2023-04-26T08:43:29;10.60;;;3.20;;
27223;SDS011;14965;50.660;13.226;2023-04-26T08:45:55;15.43;;;3.15;;
27223;SDS011;14965;50.660;13.226;2023-04-26T08:50:56;11.82;;;3.33;;
27223;SDS011;14965;50.660;13.226;2023-04-26T08:53:23;11.07;;;3.37;;
27223;SDS011;14965;50.660;13.226;2023-04-26T08:56:14;7.32;;;2.83;;
27223;SDS011;14965;50.660;13.226;2023-04-26T08:58:56;8.55;;;2.20;;
27223;SDS011;14965;50.660;13.226;2023-04-26T09:01:41;8.65;;;2.60;;
27223;SDS011;14965;50.660;13.226;2023-04-26T09:04:15;7.78;;;2.53;;
27223;SDS011;14965;50.660;13.226;2023-04-26T09:06:41;8.70;;;2.72;;
27223;SDS011;14965;50.660;13.226;2023-04-26T09:09:19;13.73;;;2.78;;
27223;SDS011;14965;50.660;13.226;2023-04-26T09:11:51;10.52;;;2.80;;
27223;SDS011;14965;50.660;13.226;2023-04-26T09:14:23;13.88;;;3.25;;
27223;SDS011;14965;50.660;13.226;2023-04-26T09:16:49;13.98;;;3.17;;
27223;SDS011;14965;50.660;13.226;2023-04-26T09:19:35;8.25;;;2.60;;
27223;SDS011;14965;50.660;13.226;2023-04-26T09:22:07;9.30;;;2.93;;
27223;SDS011;14965;50.660;13.226;2023-04-26T09:24:46;7.03;;;2.92;;
27223;SDS011;14965;50.660;13.226;2023-04-26T09:27:20;11.40;;;3.13;;
27223;SDS011;14965;50.660;13.226;2023-04-26T09:29:58;13.20;;;3.00;;
27223;SDS011;14965;50.660;13.226;2023-04-26T09:32:43;11.23;;;3.03;;
27223;SDS011;14965;50.660;13.226;2023-04-26T09:35:30;8.27;;;2.92;;
27223;SDS011;14965;50.660;13.226;2023-04-26T09:38:02;10.60;;;2.70;;
27223;SDS011;14965;50.660;13.226;2023-04-26T09:40:41;7.82;;;2.80;;
27223;SDS011;14965;50.660;13.226;2023-04-26T09:43:15;6.22;;;2.35;;
27223;SDS011;14965;50.660;13.226;2023-04-26T09:45:44;8.63;;;2.67;;
27223;SDS011;14965;50.660;13.226;2023-04-26T09:48:13;7.43;;;2.53;;
27223;SDS011;14965;50.660;13.226;2023-04-26T09:50:44;6.65;;;2.38;;
27223;SDS011;14965;50.660;13.226;2023-04-26T09:53:10;8.60;;;2.65;;
27223;SDS011;14965;50.660;13.226;2023-04-26T10:08:16;10.43;;;3.20;;
27223;SDS011;14965;50.660;13.226;2023-04-26T10:11:49;13.13;;;3.15;;
27223;SDS011;14965;50.660;13.226;2023-04-26T10:14:25;8.13;;;3.17;;
27223;SDS011;14965;50.660;13.226;2023-04-26T10:16:59;10.77;;;3.15;;
27223;SDS011;14965;50.660;13.226;2023-04-26T10:19:45;10.85;;;3.25;;
27223;SDS011;14965;50.660;13.226;2023-04-26T10:33:46;12.70;;;3.08;;
27223;SDS011;14965;50.660;13.226;2023-04-26T10:37:10;6.30;;;2.28;;
27223;SDS011;14965;50.660;13.226;2023-04-26T10:39:37;6.65;;;2.17;;
27223;SDS011;14965;50.660;13.226;2023-04-26T10:44:57;8.55;;;2.67;;
27223;SDS011;14965;50.660;13.226;2023-04-26T10:47:52;7.75;;;2.58;;
27223;SDS011;14965;50.660;13.226;2023-04-26T10:53:33;5.72;;;2.97;;
27223;SDS011;14965;50.660;13.226;2023-04-26T10:59:18;8.25;;;2.30;;
27223;SDS011;14965;50.660;13.226;2023-04-26T11:01:53;7.50;;;2.47;;
27223;SDS011;14965;50.660;13.226;2023-04-26T11:04:20;9.85;;;2.85;;
27223;SDS011;14965;50.660;13.226;2023-04-26T11:06:46;6.05;;;2.38;;
27223;SDS011;14965;50.660;13.226;2023-04-26T11:09:32;10.35;;;2.30;;
27223;SDS011;14965;50.660;13.226;2023-04-26T11:11:59;6.82;;;2.60;;
27223;SDS011;14965;50.660;13.226;2023-04-26T11:14:24;6.55;;;2.60;;
27223;SDS011;14965;50.660;13.226;2023-04-26T11:16:51;8.05;;;2.83;;
27223;SDS011;14965;50.660;13.226;2023-04-26T11:19:17;8.13;;;2.67;;
27223;SDS011;14965;50.660;13.226;2023-04-26T11:21:44;6.20;;;3.00;;
27223;SDS011;14965;50.660;13.226;2023-04-26T11:24:13;11.52;;;2.60;;
27223;SDS011;14965;50.660;13.226;2023-04-26T11:26:39;10.27;;;2.88;;
27223;SDS011;14965;50.660;13.226;2023-04-26T11:29:06;8.25;;;2.58;;
27223;SDS011;14965;50.660;13.226;2023-04-26T11:31:32;7.82;;;3.10;;
27223;SDS011;14965;50.660;13.226;2023-04-26T11:34:00;8.52;;;2.65;;
27223;SDS011;14965;50.660;13.226;2023-04-26T11:36:28;9.18;;;2.85;;
27223;SDS011;14965;50.660;13.226;2023-04-26T11:38:55;8.05;;;2.90;;
27223;SDS011;14965;50.660;13.226;2023-04-26T11:41:22;9.43;;;2.75;;
27223;SDS011;14965;50.660;13.226;2023-04-26T11:43:48;10.77;;;2.80;;
27223;SDS011;14965;50.660;13.226;2023-04-26T11:46:14;6.50;;;2.70;;
27223;SDS011;14965;50.660;13.226;2023-04-26T11:48:40;7.00;;;2.95;;
27223;SDS011;14965;50.660;13.226;2023-04-26T11:51:06;9.02;;;3.25;;
27223;SDS011;14965;50.660;13.226;2023-04-26T11:53:34;9.10;;;3.50;;
27223;SDS011;14965;50.660;13.226;2023-04-26T11:56:02;6.53;;;2.90;;
27223;SDS011;14965;50.660;13.226;2023-04-26T11:58:29;8.63;;;3.08;;
27223;SDS011;14965;50.660;13.226;2023-04-26T12:00:55;9.45;;;2.88;;
27223;SDS011;14965;50.660;13.226;2023-04-26T12:03:23;10.73;;;3.20;;
27223;SDS011;14965;50.660;13.226;2023-04-26T12:05:53;9.18;;;2.80;;
27223;SDS011;14965;50.660;13.226;2023-04-26T12:08:22;7.85;;;3.10;;
27223;SDS011;14965;50.660;13.226;2023-04-26T12:10:49;9.88;;;3.40;;
27223;SDS011;14965;50.660;13.226;2023-04-26T12:13:17;11.02;;;2.97;;
27223;SDS011;14965;50.660;13.226;2023-04-26T12:15:44;15.10;;;6.60;;
27223;SDS011;14965;50.660;13.226;2023-04-26T12:18:11;8.73;;;3.08;;
27223;SDS011;14965;50.660;13.226;2023-04-26T12:20:37;7.40;;;2.83;;
27223;SDS011;14965;50.660;13.226;2023-04-26T12:23:05;4.63;;;2.60;;
27223;SDS011;14965;50.660;13.226;2023-04-26T12:25:33;9.00;;;2.85;;
27223;SDS011;14965;50.660;13.226;2023-04-26T12:28:00;7.00;;;3.08;;
27223;SDS011;14965;50.660;13.226;2023-04-26T12:30:29;11.75;;;3.03;;
27223;SDS011;14965;50.660;13.226;2023-04-26T12:32:56;4.70;;;2.25;;
27223;SDS011;14965;50.660;13.226;2023-04-26T12:35:22;7.30;;;2.50;;
27223;SDS011;14965;50.660;13.226;2023-04-26T12:37:49;12.25;;;3.30;;
27223;SDS011;14965;50.660;13.226;2023-04-26T12:40:15;8.70;;;3.25;;
27223;SDS011;14965;50.660;13.226;2023-04-26T12:42:41;7.07;;;2.50;;
27223;SDS011;14965;50.660;13.226;2023-04-26T12:45:07;6.65;;;2.33;;
27223;SDS011;14965;50.660;13.226;2023-04-26T12:47:35;9.20;;;2.47;;
27223;SDS011;14965;50.660;13.226;2023-04-26T12:50:01;11.70;;;2.75;;
27223;SDS011;14965;50.660;13.226;2023-04-26T12:52:29;6.07;;;2.90;;
27223;SDS011;14965;50.660;13.226;2023-04-26T12:54:55;8.18;;;3.25;;
27223;SDS011;14965;50.660;13.226;2023-04-26T12:57:21;8.93;;;2.95;;
27223;SDS011;14965;50.660;13.226;2023-04-26T12:59:46;9.30;;;2.50;;
27223;SDS011;14965;50.660;13.226;2023-04-26T13:02:12;6.35;;;3.00;;
27223;SDS011;14965;50.660;13.226;2023-04-26T13:04:40;6.63;;;2.60;;
27223;SDS011;14965;50.660;13.226;2023-04-26T13:07:05;10.25;;;2.95;;
27223;SDS011;14965;50.660;13.226;2023-04-26T13:09:32;6.30;;;2.60;;
27223;SDS011;14965;50.660;13.226;2023-04-26T13:11:57;8.27;;;3.00;;
27223;SDS011;14965;50.660;13.226;2023-04-26T13:14:23;7.72;;;2.85;;
27223;SDS011;14965;50.660;13.226;2023-04-26T13:16:49;6.05;;;2.65;;
27223;SDS011;14965;50.660;13.226;2023-04-26T13:19:15;11.18;;;2.90;;
27223;SDS011;14965;50.660;13.226;2023-04-26T13:21:42;7.60;;;3.20;;
27223;SDS011;14965;50.660;13.226;2023-04-26T13:24:08;9.88;;;2.78;;
27223;SDS011;14965;50.660;13.226;2023-04-26T13:26:34;13.02;;;2.70;;
27223;SDS011;14965;50.660;13.226;2023-04-26T13:29:00;12.15;;;3.05;;
27223;SDS011;14965;50.660;13.226;2023-04-26T13:31:26;7.50;;;2.97;;
27223;SDS011;14965;50.660;13.226;2023-04-26T13:33:52;8.50;;;3.00;;
27223;SDS011;14965;50.660;13.226;2023-04-26T13:36:18;11.93;;;2.97;;
27223;SDS011;14965;50.660;13.226;2023-04-26T13:38:45;11.90;;;2.45;;
27223;SDS011;14965;50.660;13.226;2023-04-26T13:41:11;9.90;;;2.63;;
27223;SDS011;14965;50.660;13.226;2023-04-26T13:43:37;12.75;;;3.25;;
27223;SDS011;14965;50.660;13.226;2023-04-26T13:46:03;11.95;;;2.92;;
27223;SDS011;14965;50.660;13.226;2023-04-26T13:48:29;8.77;;;2.88;;
27223;SDS011;14965;50.660;13.226;2023-04-26T13:50:55;10.13;;;3.03;;
27223;SDS011;14965;50.660;13.226;2023-04-26T13:53:21;8.70;;;2.92;;
27223;SDS011;14965;50.660;13.226;2023-04-26T13:55:48;6.57;;;3.05;;
27223;SDS011;14965;50.660;13.226;2023-04-26T13:58:16;8.73;;;3.00;;
27223;SDS011;14965;50.660;13.226;2023-04-26T14:00:42;4.75;;;2.80;;
27223;SDS011;14965;50.660;13.226;2023-04-26T14:03:08;10.45;;;2.60;;
27223;SDS011;14965;50.660;13.226;2023-04-26T14:05:34;8.18;;;2.63;;
27223;SDS011;14965;50.660;13.226;2023-04-26T14:08:00;10.52;;;2.50;;
27223;SDS011;14965;50.660;13.226;2023-04-26T14:10:26;9.70;;;3.35;;
27223;SDS011;14965;50.660;13.226;2023-04-26T14:12:53;9.52;;;2.90;;
27223;SDS011;14965;50.660;13.226;2023-04-26T14:15:19;7.45;;;2.85;;
27223;SDS011;14965;50.660;13.226;2023-04-26T14:17:45;8.80;;;2.70;;
27223;SDS011;14965;50.660;13.226;2023-04-26T14:20:11;10.40;;;3.00;;
27223;SDS011;14965;50.660;13.226;2023-04-26T14:22:37;8.68;;;2.80;;
27223;SDS011;14965;50.660;13.226;2023-04-26T14:25:03;9.73;;;3.40;;
27223;SDS011;14965;50.660;13.226;2023-04-26T14:27:30;7.07;;;2.78;;
27223;SDS011;14965;50.660;13.226;2023-04-26T14:29:57;7.10;;;2.72;;
27223;SDS011;14965;50.660;13.226;2023-04-26T14:32:23;10.63;;;2.70;;
27223;SDS011;14965;50.660;13.226;2023-04-26T14:34:49;8.85;;;3.17;;
27223;SDS011;14965;50.660;13.226;2023-04-26T14:37:14;9.90;;;2.90;;
27223;SDS011;14965;50.660;13.226;2023-04-26T14:39:41;6.20;;;3.05;;
27223;SDS011;14965;50.660;13.226;2023-04-26T14:42:07;8.40;;;2.90;;
27223;SDS011;14965;50.660;13.226;2023-04-26T14:44:32;10.73;;;3.00;;
27223;SDS011;14965;50.660;13.226;2023-04-26T14:47:00;6.93;;;3.22;;
27223;SDS011;14965;50.660;13.226;2023-04-26T14:49:25;10.85;;;3.10;;
27223;SDS011;14965;50.660;13.226;2023-04-26T14:51:51;5.55;;;2.97;;
27223;SDS011;14965;50.660;13.226;2023-04-26T14:54:17;10.25;;;3.42;;
27223;SDS011;14965;50.660;13.226;2023-04-26T14:56:43;6.55;;;3.08;;
27223;SDS011;14965;50.660;13.226;2023-04-26T14:59:09;11.07;;;3.08;;
27223;SDS011;14965;50.660;13.226;2023-04-26T15:01:34;11.77;;;4.13;;
27223;SDS011;14965;50.660;13.226;2023-04-26T15:04:02;8.70;;;3.55;;